sensor_id;sensor_type;location;lat;lon;timestamp;temperature;humidity
14555;DHT22;7364;50.870;4.722;2024-03-23T00:54:40;10.10;99.90
14555;DHT22;7364;50.870;4.722;2024-03-23T00:57:06;10.10;99.90
14555;DHT22;7364;50.870;4.722;2024-03-23T00:59:33;10.00;99.90
14555;DHT22;7364;50.870;4.722;2024-03-23T01:02:00;9.90;99.90
14555;DHT22;7364;50.870;4.722;2024-03-23T01:04:27;10.10;99.90
14555;DHT22;7364;50.870;4.722;2024-03-23T01:06:53;10.40;99.90
14555;DHT22;7364;50.870;4.722;2024-03-23T01:09:20;10.60;99.90
14555;DHT22;7364;50.870;4.722;2024-03-23T01:11:48;10.60;99.90
14555;DHT22;7364;50.870;4.722;2024-03-23T01:14:15;10.50;99.90
14555;DHT22;7364;50.870;4.722;2024-03-23T01:16:41;9.80;99.90
14555;DHT22;7364;50.870;4.722;2024-03-23T01:19:08;9.50;99.90
14555;DHT22;7364;50.870;4.722;2024-03-23T01:21:35;9.30;99.90
14555;DHT22;7364;50.870;4.722;2024-03-23T01:24:02;9.30;99.90
14555;DHT22;7364;50.870;4.722;2024-03-23T01:26:28;9.20;99.90
14555;DHT22;7364;50.870;4.722;2024-03-23T01:28:57;9.10;99.90
14555;DHT22;7364;50.870;4.722;2024-03-23T01:31:24;9.20;99.90
14555;DHT22;7364;50.870;4.722;2024-03-23T01:33:51;9.30;99.90
14555;DHT22;7364;50.870;4.722;2024-03-23T01:36:17;9.40;99.90
14555;DHT22;7364;50.870;4.722;2024-03-23T01:38:44;9.60;99.90
14555;DHT22;7364;50.870;4.722;2024-03-23T01:41:10;10.00;99.90
14555;DHT22;7364;50.870;4.722;2024-03-23T01:43:37;10.10;99.90
14555;DHT22;7364;50.870;4.722;2024-03-23T01:46:04;10.10;99.90
14555;DHT22;7364;50.870;4.722;2024-03-23T01:48:32;9.90;99.90
14555;DHT22;7364;50.870;4.722;2024-03-23T01:50:58;9.80;99.90
14555;DHT22;7364;50.870;4.722;2024-03-23T01:53:25;9.60;99.90
14555;DHT22;7364;50.870;4.722;2024-03-23T01:55:52;9.60;99.90
14555;DHT22;7364;50.870;4.722;2024-03-23T01:58:19;9.70;99.90
14555;DHT22;7364;50.870;4.722;2024-03-23T02:00:45;9.70;99.90
14555;DHT22;7364;50.870;4.722;2024-03-23T02:03:26;9.80;99.90
14555;DHT22;7364;50.870;4.722;2024-03-23T02:05:53;9.90;99.90
14555;DHT22;7364;50.870;4.722;2024-03-23T02:08:22;9.90;99.90
14555;DHT22;7364;50.870;4.722;2024-03-23T02:10:48;9.90;99.90
14555;DHT22;7364;50.870;4.722;2024-03-23T02:13:17;10.00;99.90
14555;DHT22;7364;50.870;4.722;2024-03-23T02:15:43;9.90;99.90
14555;DHT22;7364;50.870;4.722;2024-03-23T02:18:10;9.80;99.90
14555;DHT22;7364;50.870;4.722;2024-03-23T02:20:38;9.80;99.90
14555;DHT22;7364;50.870;4.722;2024-03-23T02:23:13;9.70;99.90
14555;DHT22;7364;50.870;4.722;2024-03-23T02:25:39;9.70;99.90
14555;DHT22;7364;50.870;4.722;2024-03-23T02:28:07;9.60;99.90
14555;DHT22;7364;50.870;4.722;2024-03-23T02:30:33;9.50;99.90
14555;DHT22;7364;50.870;4.722;2024-03-23T02:33:00;9.50;99.90
14555;DHT22;7364;50.870;4.722;2024-03-23T02:35:27;9.60;99.90
14555;DHT22;7364;50.870;4.722;2024-03-23T02:37:54;9.70;99.90
14555;DHT22;7364;50.870;4.722;2024-03-23T02:40:23;9.60;99.90
14555;DHT22;7364;50.870;4.722;2024-03-23T02:42:51;9.60;99.90
14555;DHT22;7364;50.870;4.722;2024-03-23T02:45:17;9.60;99.90
14555;DHT22;7364;50.870;4.722;2024-03-23T02:47:45;9.50;99.90
14555;DHT22;7364;50.870;4.722;2024-03-23T02:50:11;9.20;99.90
14555;DHT22;7364;50.870;4.722;2024-03-23T02:52:40;9.00;99.90
14555;DHT22;7364;50.870;4.722;2024-03-23T02:55:07;9.00;99.90
14555;DHT22;7364;50.870;4.722;2024-03-23T02:57:36;9.10;99.90
14555;DHT22;7364;50.870;4.722;2024-03-23T03:00:02;9.20;99.90
14555;DHT22;7364;50.870;4.722;2024-03-23T03:02:30;9.10;99.90
14555;DHT22;7364;50.870;4.722;2024-03-23T03:04:57;9.00;99.90
14555;DHT22;7364;50.870;4.722;2024-03-23T03:07:24;8.80;99.90
14555;DHT22;7364;50.870;4.722;2024-03-23T03:09:51;8.80;99.90
14555;DHT22;7364;50.870;4.722;2024-03-23T03:12:18;8.80;99.90
14555;DHT22;7364;50.870;4.722;2024-03-23T03:14:45;8.90;99.90
14555;DHT22;7364;50.870;4.722;2024-03-23T03:17:14;9.00;99.90
14555;DHT22;7364;50.870;4.722;2024-03-23T03:19:40;9.10;99.90
14555;DHT22;7364;50.870;4.722;2024-03-23T03:22:08;9.00;99.90
14555;DHT22;7364;50.870;4.722;2024-03-23T03:24:34;8.90;99.90
14555;DHT22;7364;50.870;4.722;2024-03-23T03:27:02;8.90;99.90
14555;DHT22;7364;50.870;4.722;2024-03-23T03:29:29;8.80;99.90
14555;DHT22;7364;50.870;4.722;2024-03-23T03:32:03;8.70;99.90
14555;DHT22;7364;50.870;4.722;2024-03-23T03:34:30;8.50;99.90
14555;DHT22;7364;50.870;4.722;2024-03-23T03:36:57;8.30;99.90
14555;DHT22;7364;50.870;4.722;2024-03-23T03:39:24;8.30;99.90
14555;DHT22;7364;50.870;4.722;2024-03-23T03:41:51;8.30;99.90
14555;DHT22;7364;50.870;4.722;2024-03-23T03:44:18;8.20;99.90
14555;DHT22;7364;50.870;4.722;2024-03-23T03:46:45;8.30;99.90
14555;DHT22;7364;50.870;4.722;2024-03-23T03:49:14;8.20;99.90
14555;DHT22;7364;50.870;4.722;2024-03-23T03:51:42;8.20;99.90
14555;DHT22;7364;50.870;4.722;2024-03-23T03:54:08;8.10;99.90
14555;DHT22;7364;50.870;4.722;2024-03-23T03:56:35;8.00;99.90
14555;DHT22;7364;50.870;4.722;2024-03-23T03:59:02;8.00;99.90
14555;DHT22;7364;50.870;4.722;2024-03-23T04:01:29;8.00;99.90
14555;DHT22;7364;50.870;4.722;2024-03-23T04:03:55;8.00;99.90
14555;DHT22;7364;50.870;4.722;2024-03-23T04:06:24;8.20;99.90
14555;DHT22;7364;50.870;4.722;2024-03-23T04:08:51;8.30;99.90
14555;DHT22;7364;50.870;4.722;2024-03-23T04:11:18;8.20;99.90
14555;DHT22;7364;50.870;4.722;2024-03-23T04:13:44;8.20;99.90
14555;DHT22;7364;50.870;4.722;2024-03-23T04:16:12;8.20;99.90
14555;DHT22;7364;50.870;4.722;2024-03-23T04:18:38;8.00;99.90
14555;DHT22;7364;50.870;4.722;2024-03-23T04:21:05;8.00;99.90
14555;DHT22;7364;50.870;4.722;2024-03-23T04:23:33;7.90;99.90
14555;DHT22;7364;50.870;4.722;2024-03-23T04:26:03;8.00;99.90
14555;DHT22;7364;50.870;4.722;2024-03-23T04:28:31;7.90;99.90
14555;DHT22;7364;50.870;4.722;2024-03-23T04:30:58;8.00;99.90
14555;DHT22;7364;50.870;4.722;2024-03-23T04:33:29;8.00;99.90
14555;DHT22;7364;50.870;4.722;2024-03-23T04:35:56;8.10;99.90
14555;DHT22;7364;50.870;4.722;2024-03-23T04:38:22;8.10;99.90
14555;DHT22;7364;50.870;4.722;2024-03-23T04:40:56;8.00;99.90
14555;DHT22;7364;50.870;4.722;2024-03-23T04:43:23;8.10;99.90
14555;DHT22;7364;50.870;4.722;2024-03-23T04:45:50;8.10;99.90
14555;DHT22;7364;50.870;4.722;2024-03-23T04:48:19;8.20;99.90
14555;DHT22;7364;50.870;4.722;2024-03-23T04:50:47;8.10;99.90
14555;DHT22;7364;50.870;4.722;2024-03-23T04:53:14;8.00;99.90
14555;DHT22;7364;50.870;4.722;2024-03-23T04:55:43;7.90;99.90
14555;DHT22;7364;50.870;4.722;2024-03-23T04:58:12;7.90;99.90
14555;DHT22;7364;50.870;4.722;2024-03-23T05:00:38;7.80;99.90
14555;DHT22;7364;50.870;4.722;2024-03-23T05:03:06;7.90;99.90
14555;DHT22;7364;50.870;4.722;2024-03-23T05:05:32;7.90;99.90
14555;DHT22;7364;50.870;4.722;2024-03-23T05:07:59;7.90;99.90
14555;DHT22;7364;50.870;4.722;2024-03-23T05:10:25;8.00;99.90
14555;DHT22;7364;50.870;4.722;2024-03-23T05:12:53;8.00;99.90
14555;DHT22;7364;50.870;4.722;2024-03-23T05:15:20;8.00;99.90
14555;DHT22;7364;50.870;4.722;2024-03-23T05:17:47;7.90;99.90
14555;DHT22;7364;50.870;4.722;2024-03-23T05:20:15;7.80;99.90
14555;DHT22;7364;50.870;4.722;2024-03-23T05:22:42;7.70;99.90
14555;DHT22;7364;50.870;4.722;2024-03-23T05:25:09;7.70;99.90
14555;DHT22;7364;50.870;4.722;2024-03-23T05:27:35;7.60;99.90
14555;DHT22;7364;50.870;4.722;2024-03-23T05:30:04;7.60;99.90
14555;DHT22;7364;50.870;4.722;2024-03-23T05:32:33;7.60;99.90
14555;DHT22;7364;50.870;4.722;2024-03-23T05:35:00;7.60;99.90
14555;DHT22;7364;50.870;4.722;2024-03-23T05:37:27;7.50;99.90
14555;DHT22;7364;50.870;4.722;2024-03-23T05:39:57;7.50;99.90
14555;DHT22;7364;50.870;4.722;2024-03-23T05:42:23;7.50;99.90
14555;DHT22;7364;50.870;4.722;2024-03-23T05:44:50;7.50;99.90
14555;DHT22;7364;50.870;4.722;2024-03-23T05:47:16;7.60;99.90
14555;DHT22;7364;50.870;4.722;2024-03-23T05:49:46;7.70;99.90
14555;DHT22;7364;50.870;4.722;2024-03-23T05:52:12;7.70;99.90
14555;DHT22;7364;50.870;4.722;2024-03-23T05:54:40;7.60;99.90
14555;DHT22;7364;50.870;4.722;2024-03-23T05:57:06;7.50;99.90
14555;DHT22;7364;50.870;4.722;2024-03-23T05:59:34;7.40;99.90
14555;DHT22;7364;50.870;4.722;2024-03-23T06:02:00;7.40;99.90
14555;DHT22;7364;50.870;4.722;2024-03-23T06:04:29;7.40;99.90
14555;DHT22;7364;50.870;4.722;2024-03-23T06:06:57;7.40;99.90
14555;DHT22;7364;50.870;4.722;2024-03-23T06:09:24;7.40;99.90
14555;DHT22;7364;50.870;4.722;2024-03-23T06:11:51;7.50;99.90
14555;DHT22;7364;50.870;4.722;2024-03-23T06:14:18;7.60;99.90
14555;DHT22;7364;50.870;4.722;2024-03-23T06:16:45;7.60;99.90
14555;DHT22;7364;50.870;4.722;2024-03-23T06:19:13;7.60;99.90
14555;DHT22;7364;50.870;4.722;2024-03-23T06:21:43;7.70;99.90
14555;DHT22;7364;50.870;4.722;2024-03-23T06:24:12;7.80;99.90
14555;DHT22;7364;50.870;4.722;2024-03-23T06:26:38;7.80;99.90
14555;DHT22;7364;50.870;4.722;2024-03-23T06:29:06;7.80;99.90
14555;DHT22;7364;50.870;4.722;2024-03-23T06:31:32;7.90;99.90
14555;DHT22;7364;50.870;4.722;2024-03-23T06:33:59;7.90;99.90
14555;DHT22;7364;50.870;4.722;2024-03-23T06:36:27;7.90;99.90
14555;DHT22;7364;50.870;4.722;2024-03-23T06:38:56;7.90;99.90
14555;DHT22;7364;50.870;4.722;2024-03-23T06:41:24;8.00;99.90
14555;DHT22;7364;50.870;4.722;2024-03-23T06:43:52;8.00;99.90
14555;DHT22;7364;50.870;4.722;2024-03-23T06:46:18;8.10;99.90
14555;DHT22;7364;50.870;4.722;2024-03-23T06:48:46;8.20;99.90
14555;DHT22;7364;50.870;4.722;2024-03-23T06:51:12;8.10;99.90
14555;DHT22;7364;50.870;4.722;2024-03-23T06:53:39;8.00;99.90
14555;DHT22;7364;50.870;4.722;2024-03-23T06:56:06;8.00;99.90
14555;DHT22;7364;50.870;4.722;2024-03-23T06:58:35;7.90;99.90
14555;DHT22;7364;50.870;4.722;2024-03-23T07:01:01;7.90;99.90
14555;DHT22;7364;50.870;4.722;2024-03-23T07:03:28;7.90;99.90
14555;DHT22;7364;50.870;4.722;2024-03-23T07:05:58;7.90;99.90
14555;DHT22;7364;50.870;4.722;2024-03-23T07:08:26;7.90;99.90
14555;DHT22;7364;50.870;4.722;2024-03-23T07:10:52;7.90;99.90
14555;DHT22;7364;50.870;4.722;2024-03-23T07:13:19;8.00;99.90
14555;DHT22;7364;50.870;4.722;2024-03-23T07:15:53;7.90;99.90
14555;DHT22;7364;50.870;4.722;2024-03-23T07:18:21;8.00;99.90
14555;DHT22;7364;50.870;4.722;2024-03-23T07:20:54;7.90;99.90
14555;DHT22;7364;50.870;4.722;2024-03-23T07:23:22;8.00;99.90
14555;DHT22;7364;50.870;4.722;2024-03-23T07:25:57;8.10;99.90
14555;DHT22;7364;50.870;4.722;2024-03-23T07:28:24;8.20;99.90
14555;DHT22;7364;50.870;4.722;2024-03-23T07:31:02;8.20;99.90
14555;DHT22;7364;50.870;4.722;2024-03-23T07:33:30;8.10;99.90
14555;DHT22;7364;50.870;4.722;2024-03-23T07:35:56;8.00;99.90
14555;DHT22;7364;50.870;4.722;2024-03-23T07:38:26;7.80;99.90
14555;DHT22;7364;50.870;4.722;2024-03-23T07:41:02;7.60;99.90
14555;DHT22;7364;50.870;4.722;2024-03-23T07:43:29;7.60;99.90
14555;DHT22;7364;50.870;4.722;2024-03-23T07:45:56;7.50;99.90
14555;DHT22;7364;50.870;4.722;2024-03-23T07:48:25;7.40;99.90
14555;DHT22;7364;50.870;4.722;2024-03-23T07:50:59;7.50;99.90
14555;DHT22;7364;50.870;4.722;2024-03-23T07:53:26;7.50;99.90
14555;DHT22;7364;50.870;4.722;2024-03-23T07:55:56;7.50;99.90
14555;DHT22;7364;50.870;4.722;2024-03-23T07:58:24;7.50;99.90
14555;DHT22;7364;50.870;4.722;2024-03-23T08:00:50;7.50;99.90
14555;DHT22;7364;50.870;4.722;2024-03-23T08:03:17;7.40;99.90
14555;DHT22;7364;50.870;4.722;2024-03-23T08:05:45;7.50;99.90
14555;DHT22;7364;50.870;4.722;2024-03-23T08:08:13;7.60;99.90
14555;DHT22;7364;50.870;4.722;2024-03-23T08:10:49;7.70;99.90
14555;DHT22;7364;50.870;4.722;2024-03-23T08:13:16;7.80;99.90
14555;DHT22;7364;50.870;4.722;2024-03-23T08:15:43;7.80;99.90
14555;DHT22;7364;50.870;4.722;2024-03-23T08:18:12;7.90;99.90
14555;DHT22;7364;50.870;4.722;2024-03-23T08:20:38;7.90;99.90
14555;DHT22;7364;50.870;4.722;2024-03-23T08:23:07;8.10;99.90
14555;DHT22;7364;50.870;4.722;2024-03-23T08:25:33;8.20;99.90
14555;DHT22;7364;50.870;4.722;2024-03-23T08:28:01;8.30;99.90
14555;DHT22;7364;50.870;4.722;2024-03-23T08:30:28;8.30;99.90
14555;DHT22;7364;50.870;4.722;2024-03-23T08:32:55;8.50;99.90
14555;DHT22;7364;50.870;4.722;2024-03-23T08:35:22;8.70;99.90
14555;DHT22;7364;50.870;4.722;2024-03-23T08:37:49;8.80;99.90
14555;DHT22;7364;50.870;4.722;2024-03-23T08:40:16;8.80;99.90
14555;DHT22;7364;50.870;4.722;2024-03-23T08:42:44;8.80;99.90
14555;DHT22;7364;50.870;4.722;2024-03-23T08:45:10;8.80;99.90
14555;DHT22;7364;50.870;4.722;2024-03-23T08:47:37;8.70;99.90
14555;DHT22;7364;50.870;4.722;2024-03-23T08:50:04;8.70;99.90
14555;DHT22;7364;50.870;4.722;2024-03-23T08:52:32;8.80;99.90
14555;DHT22;7364;50.870;4.722;2024-03-23T08:54:58;8.90;99.90
14555;DHT22;7364;50.870;4.722;2024-03-23T08:57:27;9.00;99.90
14555;DHT22;7364;50.870;4.722;2024-03-23T08:59:53;9.20;99.90
14555;DHT22;7364;50.870;4.722;2024-03-23T09:02:20;9.10;99.90
14555;DHT22;7364;50.870;4.722;2024-03-23T09:04:47;9.20;99.90
14555;DHT22;7364;50.870;4.722;2024-03-23T09:07:14;9.10;99.90
14555;DHT22;7364;50.870;4.722;2024-03-23T09:09:40;8.90;99.90
14555;DHT22;7364;50.870;4.722;2024-03-23T09:12:07;9.00;99.90
14555;DHT22;7364;50.870;4.722;2024-03-23T09:14:35;9.00;99.90
14555;DHT22;7364;50.870;4.722;2024-03-23T09:17:03;9.10;99.90
14555;DHT22;7364;50.870;4.722;2024-03-23T09:19:29;9.20;99.90
14555;DHT22;7364;50.870;4.722;2024-03-23T09:21:56;9.00;99.90
14555;DHT22;7364;50.870;4.722;2024-03-23T09:24:23;8.80;99.90
14555;DHT22;7364;50.870;4.722;2024-03-23T09:26:51;8.80;99.90
14555;DHT22;7364;50.870;4.722;2024-03-23T09:29:18;8.80;99.90
14555;DHT22;7364;50.870;4.722;2024-03-23T09:31:47;9.00;99.90
14555;DHT22;7364;50.870;4.722;2024-03-23T09:34:13;9.10;99.90
14555;DHT22;7364;50.870;4.722;2024-03-23T09:36:41;9.10;99.90
14555;DHT22;7364;50.870;4.722;2024-03-23T09:39:07;9.00;99.90
14555;DHT22;7364;50.870;4.722;2024-03-23T09:41:35;9.00;99.90
14555;DHT22;7364;50.870;4.722;2024-03-23T09:44:01;9.00;99.90
14555;DHT22;7364;50.870;4.722;2024-03-23T09:46:28;9.00;99.90
14555;DHT22;7364;50.870;4.722;2024-03-23T09:49:01;9.10;99.90
14555;DHT22;7364;50.870;4.722;2024-03-23T09:51:31;9.20;99.90
14555;DHT22;7364;50.870;4.722;2024-03-23T09:53:57;9.30;99.90
14555;DHT22;7364;50.870;4.722;2024-03-23T09:56:24;9.20;99.90
14555;DHT22;7364;50.870;4.722;2024-03-23T09:58:51;9.20;99.90
14555;DHT22;7364;50.870;4.722;2024-03-23T10:01:18;9.30;99.90
14555;DHT22;7364;50.870;4.722;2024-03-23T10:03:45;9.30;99.90
14555;DHT22;7364;50.870;4.722;2024-03-23T10:06:14;9.60;99.90
14555;DHT22;7364;50.870;4.722;2024-03-23T10:08:40;9.60;99.90
14555;DHT22;7364;50.870;4.722;2024-03-23T10:11:13;9.70;99.90
14555;DHT22;7364;50.870;4.722;2024-03-23T10:13:41;10.00;99.90
14555;DHT22;7364;50.870;4.722;2024-03-23T10:16:10;10.10;99.90
14555;DHT22;7364;50.870;4.722;2024-03-23T10:18:39;10.00;99.90
14555;DHT22;7364;50.870;4.722;2024-03-23T10:21:08;10.10;99.90
14555;DHT22;7364;50.870;4.722;2024-03-23T10:23:37;10.10;99.90
14555;DHT22;7364;50.870;4.722;2024-03-23T10:26:16;10.30;99.90
14555;DHT22;7364;50.870;4.722;2024-03-23T10:28:54;10.10;99.90
14555;DHT22;7364;50.870;4.722;2024-03-23T10:31:22;9.80;99.90
14555;DHT22;7364;50.870;4.722;2024-03-23T10:33:49;9.70;99.90
14555;DHT22;7364;50.870;4.722;2024-03-23T10:36:20;9.70;99.90
14555;DHT22;7364;50.870;4.722;2024-03-23T10:38:50;9.60;99.90
14555;DHT22;7364;50.870;4.722;2024-03-23T10:41:17;9.50;99.90
14555;DHT22;7364;50.870;4.722;2024-03-23T10:43:47;9.60;99.90
14555;DHT22;7364;50.870;4.722;2024-03-23T10:46:13;9.60;99.90
14555;DHT22;7364;50.870;4.722;2024-03-23T10:48:41;9.70;99.90
14555;DHT22;7364;50.870;4.722;2024-03-23T10:51:08;10.10;99.90
14555;DHT22;7364;50.870;4.722;2024-03-23T10:53:35;10.80;99.90
14555;DHT22;7364;50.870;4.722;2024-03-23T10:56:05;11.00;99.90
14555;DHT22;7364;50.870;4.722;2024-03-23T10:58:37;10.90;99.90
14555;DHT22;7364;50.870;4.722;2024-03-23T11:01:04;10.40;99.90
14555;DHT22;7364;50.870;4.722;2024-03-23T11:03:32;10.00;99.90
14555;DHT22;7364;50.870;4.722;2024-03-23T11:06:00;9.80;99.90
14555;DHT22;7364;50.870;4.722;2024-03-23T11:08:32;10.00;99.90
14555;DHT22;7364;50.870;4.722;2024-03-23T11:11:19;10.40;99.90
14555;DHT22;7364;50.870;4.722;2024-03-23T11:13:48;10.80;99.90
14555;DHT22;7364;50.870;4.722;2024-03-23T11:16:15;11.20;99.90
14555;DHT22;7364;50.870;4.722;2024-03-23T11:18:43;11.50;99.90
14555;DHT22;7364;50.870;4.722;2024-03-23T11:21:10;11.30;98.90
14555;DHT22;7364;50.870;4.722;2024-03-23T11:23:38;11.20;99.10
14555;DHT22;7364;50.870;4.722;2024-03-23T11:26:07;11.30;99.00
14555;DHT22;7364;50.870;4.722;2024-03-23T11:28:36;11.20;99.80
14555;DHT22;7364;50.870;4.722;2024-03-23T11:31:10;11.50;99.30
14555;DHT22;7364;50.870;4.722;2024-03-23T11:33:38;11.80;98.40
14555;DHT22;7364;50.870;4.722;2024-03-23T11:36:05;11.90;97.70
14555;DHT22;7364;50.870;4.722;2024-03-23T11:38:37;12.20;98.40
14555;DHT22;7364;50.870;4.722;2024-03-23T11:41:03;12.40;97.80
14555;DHT22;7364;50.870;4.722;2024-03-23T11:43:32;12.70;97.60
14555;DHT22;7364;50.870;4.722;2024-03-23T11:46:00;13.40;96.70
14555;DHT22;7364;50.870;4.722;2024-03-23T11:48:30;13.50;93.20
14555;DHT22;7364;50.870;4.722;2024-03-23T11:50:57;12.80;94.80
14555;DHT22;7364;50.870;4.722;2024-03-23T11:53:25;12.80;94.10
14555;DHT22;7364;50.870;4.722;2024-03-23T11:55:55;12.90;94.60
14555;DHT22;7364;50.870;4.722;2024-03-23T11:58:23;13.20;94.80
14555;DHT22;7364;50.870;4.722;2024-03-23T12:00:50;13.20;93.90
14555;DHT22;7364;50.870;4.722;2024-03-23T12:03:20;12.70;94.50
14555;DHT22;7364;50.870;4.722;2024-03-23T12:05:51;13.00;95.50
14555;DHT22;7364;50.870;4.722;2024-03-23T12:08:23;13.20;94.60
14555;DHT22;7364;50.870;4.722;2024-03-23T12:10:51;13.00;94.70
14555;DHT22;7364;50.870;4.722;2024-03-23T12:13:20;12.70;93.00
14555;DHT22;7364;50.870;4.722;2024-03-23T12:15:47;12.40;93.80
14555;DHT22;7364;50.870;4.722;2024-03-23T12:18:14;12.40;94.40
14555;DHT22;7364;50.870;4.722;2024-03-23T12:20:42;12.50;92.50
14555;DHT22;7364;50.870;4.722;2024-03-23T12:23:11;12.80;93.80
14555;DHT22;7364;50.870;4.722;2024-03-23T12:25:37;12.80;93.20
14555;DHT22;7364;50.870;4.722;2024-03-23T12:28:05;12.90;92.60
14555;DHT22;7364;50.870;4.722;2024-03-23T12:30:35;12.90;92.40
14555;DHT22;7364;50.870;4.722;2024-03-23T12:33:02;13.00;93.40
14555;DHT22;7364;50.870;4.722;2024-03-23T12:35:29;13.40;94.30
14555;DHT22;7364;50.870;4.722;2024-03-23T12:37:58;13.10;93.60
14555;DHT22;7364;50.870;4.722;2024-03-23T12:40:24;13.10;94.90
14555;DHT22;7364;50.870;4.722;2024-03-23T12:42:52;13.50;94.70
14555;DHT22;7364;50.870;4.722;2024-03-23T12:45:18;13.80;94.80
14555;DHT22;7364;50.870;4.722;2024-03-23T12:47:45;12.90;94.00
14555;DHT22;7364;50.870;4.722;2024-03-23T12:50:12;12.20;96.10
14555;DHT22;7364;50.870;4.722;2024-03-23T12:52:39;11.90;97.90
14555;DHT22;7364;50.870;4.722;2024-03-23T12:55:07;11.70;97.90
14555;DHT22;7364;50.870;4.722;2024-03-23T12:57:35;11.80;97.70
14555;DHT22;7364;50.870;4.722;2024-03-23T13:00:02;12.20;97.50
14555;DHT22;7364;50.870;4.722;2024-03-23T13:02:30;13.10;97.40
14555;DHT22;7364;50.870;4.722;2024-03-23T13:04:56;13.90;96.00
14555;DHT22;7364;50.870;4.722;2024-03-23T13:07:24;14.20;95.00
14555;DHT22;7364;50.870;4.722;2024-03-23T13:09:51;14.50;95.50
14555;DHT22;7364;50.870;4.722;2024-03-23T13:12:20;15.40;95.80
14555;DHT22;7364;50.870;4.722;2024-03-23T13:14:46;16.70;93.80
14555;DHT22;7364;50.870;4.722;2024-03-23T13:17:14;18.00;93.00
14555;DHT22;7364;50.870;4.722;2024-03-23T13:19:41;18.40;90.30
14555;DHT22;7364;50.870;4.722;2024-03-23T13:22:08;17.30;90.30
14555;DHT22;7364;50.870;4.722;2024-03-23T13:24:37;16.80;91.50
14555;DHT22;7364;50.870;4.722;2024-03-23T13:27:05;16.90;90.50
14555;DHT22;7364;50.870;4.722;2024-03-23T13:29:34;16.30;87.30
14555;DHT22;7364;50.870;4.722;2024-03-23T13:32:03;16.10;86.50
14555;DHT22;7364;50.870;4.722;2024-03-23T13:34:30;16.40;86.40
14555;DHT22;7364;50.870;4.722;2024-03-23T13:36:57;16.20;87.90
14555;DHT22;7364;50.870;4.722;2024-03-23T13:39:24;16.40;85.10
14555;DHT22;7364;50.870;4.722;2024-03-23T13:41:53;16.30;82.30
14555;DHT22;7364;50.870;4.722;2024-03-23T13:44:20;14.80;89.00
14555;DHT22;7364;50.870;4.722;2024-03-23T13:46:49;14.20;91.20
14555;DHT22;7364;50.870;4.722;2024-03-23T13:49:25;13.90;91.70
14555;DHT22;7364;50.870;4.722;2024-03-23T13:51:52;13.20;91.00
14555;DHT22;7364;50.870;4.722;2024-03-23T13:54:19;12.70;91.90
14555;DHT22;7364;50.870;4.722;2024-03-23T13:56:48;12.40;91.30
14555;DHT22;7364;50.870;4.722;2024-03-23T13:59:14;12.90;91.00
14555;DHT22;7364;50.870;4.722;2024-03-23T14:01:42;12.90;90.70
14555;DHT22;7364;50.870;4.722;2024-03-23T14:04:10;12.60;91.30
14555;DHT22;7364;50.870;4.722;2024-03-23T14:06:37;12.30;91.60
14555;DHT22;7364;50.870;4.722;2024-03-23T14:09:04;12.00;92.40
14555;DHT22;7364;50.870;4.722;2024-03-23T14:11:34;11.80;92.70
14555;DHT22;7364;50.870;4.722;2024-03-23T14:14:02;11.40;97.40
14555;DHT22;7364;50.870;4.722;2024-03-23T14:16:30;10.70;99.90
14555;DHT22;7364;50.870;4.722;2024-03-23T14:18:57;9.50;99.90
14555;DHT22;7364;50.870;4.722;2024-03-23T14:21:25;9.10;99.90
14555;DHT22;7364;50.870;4.722;2024-03-23T14:23:53;9.20;99.90
14555;DHT22;7364;50.870;4.722;2024-03-23T14:26:19;9.20;99.90
14555;DHT22;7364;50.870;4.722;2024-03-23T14:28:47;9.20;99.90
14555;DHT22;7364;50.870;4.722;2024-03-23T14:31:13;9.20;99.90
14555;DHT22;7364;50.870;4.722;2024-03-23T14:33:40;9.10;99.90
14555;DHT22;7364;50.870;4.722;2024-03-23T14:36:12;8.90;99.90
14555;DHT22;7364;50.870;4.722;2024-03-23T14:38:41;8.70;99.90
14555;DHT22;7364;50.870;4.722;2024-03-23T14:41:07;8.60;99.90
14555;DHT22;7364;50.870;4.722;2024-03-23T14:43:34;8.70;99.90
14555;DHT22;7364;50.870;4.722;2024-03-23T14:46:08;8.80;99.90
14555;DHT22;7364;50.870;4.722;2024-03-23T14:48:36;9.50;99.90
14555;DHT22;7364;50.870;4.722;2024-03-23T14:51:03;10.50;99.90
14555;DHT22;7364;50.870;4.722;2024-03-23T14:53:32;11.50;99.90
14555;DHT22;7364;50.870;4.722;2024-03-23T14:55:59;12.50;99.90
14555;DHT22;7364;50.870;4.722;2024-03-23T14:58:29;13.40;99.90
14555;DHT22;7364;50.870;4.722;2024-03-23T15:01:00;14.50;99.90
14555;DHT22;7364;50.870;4.722;2024-03-23T15:03:28;14.80;99.90
14555;DHT22;7364;50.870;4.722;2024-03-23T15:05:55;14.50;99.90
14555;DHT22;7364;50.870;4.722;2024-03-23T15:08:23;15.20;99.90
14555;DHT22;7364;50.870;4.722;2024-03-23T15:10:49;15.10;99.90
14555;DHT22;7364;50.870;4.722;2024-03-23T15:13:18;14.70;99.90
14555;DHT22;7364;50.870;4.722;2024-03-23T15:15:44;13.80;99.90
14555;DHT22;7364;50.870;4.722;2024-03-23T15:18:15;13.30;99.90
14555;DHT22;7364;50.870;4.722;2024-03-23T15:20:41;12.60;99.90
14555;DHT22;7364;50.870;4.722;2024-03-23T15:23:09;12.60;99.90
14555;DHT22;7364;50.870;4.722;2024-03-23T15:25:35;12.20;99.90
14555;DHT22;7364;50.870;4.722;2024-03-23T15:28:02;12.00;99.90
14555;DHT22;7364;50.870;4.722;2024-03-23T15:30:30;12.10;99.90
14555;DHT22;7364;50.870;4.722;2024-03-23T15:32:57;12.00;99.90
14555;DHT22;7364;50.870;4.722;2024-03-23T15:35:23;12.00;99.90
14555;DHT22;7364;50.870;4.722;2024-03-23T15:37:50;12.00;99.90
14555;DHT22;7364;50.870;4.722;2024-03-23T15:40:17;11.80;99.90
14555;DHT22;7364;50.870;4.722;2024-03-23T15:42:44;11.50;99.90
14555;DHT22;7364;50.870;4.722;2024-03-23T15:45:10;11.40;99.90
14555;DHT22;7364;50.870;4.722;2024-03-23T15:47:39;11.30;99.90
14555;DHT22;7364;50.870;4.722;2024-03-23T15:50:06;11.30;99.90
14555;DHT22;7364;50.870;4.722;2024-03-23T15:52:36;11.30;99.90
14555;DHT22;7364;50.870;4.722;2024-03-23T15:55:03;11.20;99.90
14555;DHT22;7364;50.870;4.722;2024-03-23T15:57:33;11.10;99.90
14555;DHT22;7364;50.870;4.722;2024-03-23T15:59:59;11.10;99.90
14555;DHT22;7364;50.870;4.722;2024-03-23T16:02:27;11.10;99.90
14555;DHT22;7364;50.870;4.722;2024-03-23T16:04:55;11.00;99.90
14555;DHT22;7364;50.870;4.722;2024-03-23T16:07:24;11.00;99.90
14555;DHT22;7364;50.870;4.722;2024-03-23T16:09:50;11.00;99.90
14555;DHT22;7364;50.870;4.722;2024-03-23T16:12:17;10.90;99.70
14555;DHT22;7364;50.870;4.722;2024-03-23T16:14:43;10.80;99.90
14555;DHT22;7364;50.870;4.722;2024-03-23T16:17:11;10.80;99.20
14555;DHT22;7364;50.870;4.722;2024-03-23T16:19:37;10.80;99.50
14555;DHT22;7364;50.870;4.722;2024-03-23T16:22:05;10.80;99.60
14555;DHT22;7364;50.870;4.722;2024-03-23T16:24:31;10.90;99.40
14555;DHT22;7364;50.870;4.722;2024-03-23T16:26:59;11.00;99.90
14555;DHT22;7364;50.870;4.722;2024-03-23T16:29:25;11.10;99.90
14555;DHT22;7364;50.870;4.722;2024-03-23T16:31:53;11.10;99.90
14555;DHT22;7364;50.870;4.722;2024-03-23T16:34:20;11.10;99.90
14555;DHT22;7364;50.870;4.722;2024-03-23T16:36:46;11.30;99.90
14555;DHT22;7364;50.870;4.722;2024-03-23T16:39:15;11.30;99.90
14555;DHT22;7364;50.870;4.722;2024-03-23T16:41:41;11.30;99.90
14555;DHT22;7364;50.870;4.722;2024-03-23T16:44:09;11.30;99.90
14555;DHT22;7364;50.870;4.722;2024-03-23T16:46:36;11.40;99.90
14555;DHT22;7364;50.870;4.722;2024-03-23T16:49:04;11.40;99.90
14555;DHT22;7364;50.870;4.722;2024-03-23T16:51:30;11.50;99.90